Time;durP1;ratioP1;P1;durP2;ratioP2;P2;SDS_P1;SDS_P2;PMS_P1;PMS_P2;Temp;Humidity;BMP_temperature;BMP_pressure;BME280_temperature;BME280_humidity;BME280_pressure;Samples;Min_cycle;Max_cycle;Signal;HPM_P1;HPM_P2
2023/03/22 00:01:10;;;;;;;18.80;7.93;;;;;;;11.38;55.71;98661.38;5094713;28;20020;-51
2023/03/22 00:03:36;;;;;;;12.68;7.60;;;;;;;11.32;55.63;98656.94;5094692;28;20528;-50
2023/03/22 00:06:02;;;;;;;15.00;8.10;;;;;;;11.24;55.73;98666.88;5076485;28;20047;-50
2023/03/22 00:08:27;;;;;;;13.43;8.10;;;;;;;11.10;56.62;98664.25;5094719;28;20028;-51
2023/03/22 00:10:53;;;;;;;12.55;7.97;;;;;;;11.03;56.53;98666.09;5094608;28;20020;-51
2023/03/22 00:13:18;;;;;;;13.43;8.60;;;;;;;10.87;57.42;98663.91;5094647;28;20031;-51
2023/03/22 00:15:47;;;;;;;13.43;8.65;;;;;;;10.83;57.30;98662.69;5076302;28;20023;-50
2023/03/22 00:18:13;;;;;;;17.15;8.30;;;;;;;10.67;57.87;98661.28;5094582;28;20124;-50
2023/03/22 00:20:46;;;;;;;10.13;7.72;;;;;;;10.76;58.10;98662.66;5094391;28;20103;-51
2023/03/22 00:23:11;;;;;;;14.93;10.45;;;;;;;10.72;57.48;98658.84;5094446;28;20031;-50
2023/03/22 00:25:37;;;;;;;15.00;8.07;;;;;;;10.38;58.11;98658.00;5076205;28;20020;-51
2023/03/22 00:28:03;;;;;;;9.93;7.18;;;;;;;10.10;58.71;98658.09;5094424;28;20056;-51
2023/03/22 00:30:29;;;;;;;10.05;7.57;;;;;;;9.86;60.17;98662.06;5059385;28;20397;-50
2023/03/22 00:32:54;;;;;;;11.85;7.15;;;;;;;10.02;60.06;98659.13;5076053;28;20036;-51
2023/03/22 00:35:20;;;;;;;14.55;6.53;;;;;;;10.05;59.46;98660.53;5076047;28;20024;-51
2023/03/22 00:37:46;;;;;;;10.57;6.25;;;;;;;10.20;59.58;98658.53;5094121;28;20039;-51
2023/03/22 00:40:12;;;;;;;11.05;7.47;;;;;;;10.39;58.88;98662.25;5094018;28;20146;-51
2023/03/22 00:42:40;;;;;;;14.57;6.78;;;;;;;10.45;58.77;98656.19;5075782;28;20020;-50
2023/03/22 00:45:08;;;;;;;9.98;5.90;;;;;;;10.46;58.28;98657.00;5075038;28;20026;-50
2023/03/22 00:47:34;;;;;;;11.07;6.80;;;;;;;10.52;58.50;98661.44;5075828;28;20034;-51
2023/03/22 00:50:00;;;;;;;18.08;6.95;;;;;;;10.52;58.42;98657.03;5075539;28;20044;-51
2023/03/22 00:52:27;;;;;;;9.18;5.57;;;;;;;10.88;57.69;98653.16;5075697;28;20081;-51
2023/03/22 00:54:54;;;;;;;15.02;6.97;;;;;;;11.03;56.89;98649.53;5093808;28;20035;-50
2023/03/22 00:57:20;;;;;;;11.90;6.50;;;;;;;10.96;56.58;98650.34;5075501;28;20028;-51
2023/03/22 00:59:46;;;;;;;12.52;6.13;;;;;;;10.65;56.33;98650.16;5058857;28;20035;-51
2023/03/22 01:02:13;;;;;;;12.35;7.10;;;;;;;10.20;57.92;98653.28;5093611;28;20020;-50
2023/03/22 01:04:45;;;;;;;13.05;6.82;;;;;;;10.02;58.89;98643.38;5093556;28;20528;-50
2023/03/22 01:07:16;;;;;;;11.98;6.63;;;;;;;10.18;59.21;98650.06;5093591;28;20020;-50
2023/03/22 01:09:46;;;;;;;13.55;6.18;;;;;;;10.46;58.40;98626.31;5075282;28;20024;-51
2023/03/22 01:12:12;;;;;;;14.80;5.90;;;;;;;10.66;57.76;98623.69;5075216;28;20089;-51
2023/03/22 01:14:38;;;;;;;13.18;6.45;;;;;;;10.85;57.54;98629.16;5075200;28;20028;-51
2023/03/22 01:17:06;;;;;;;7.28;5.50;;;;;;;11.13;56.86;98619.22;5075120;28;20034;-51
2023/03/22 01:19:32;;;;;;;9.10;5.65;;;;;;;11.32;56.30;98619.38;5093283;28;20023;-51
2023/03/22 01:21:57;;;;;;;13.38;5.75;;;;;;;11.42;56.25;98616.31;5074961;28;20020;-51
2023/03/22 01:24:23;;;;;;;12.23;4.68;;;;;;;11.55;55.52;98611.00;5074955;28;20043;-51
2023/03/22 01:26:49;;;;;;;6.50;4.65;;;;;;;11.66;53.80;98617.44;5093076;28;20065;-51
2023/03/22 01:29:14;;;;;;;13.75;6.88;;;;;;;11.57;54.63;98607.16;5074926;28;20032;-51
2023/03/22 01:31:40;;;;;;;12.77;7.18;;;;;;;11.39;54.24;98605.22;5074850;28;20031;-51
2023/03/22 01:34:06;;;;;;;13.73;8.25;;;;;;;11.02;55.12;98609.34;5074817;28;20023;-51
2023/03/22 01:36:31;;;;;;;11.32;6.38;;;;;;;10.59;55.63;98605.34;5092971;28;20017;-51
2023/03/22 01:38:58;;;;;;;16.05;5.75;;;;;;;10.24;56.68;98612.56;5093198;28;20035;-50
2023/03/22 01:41:24;;;;;;;10.30;6.25;;;;;;;10.08;57.92;98603.25;5092688;28;20024;-50
2023/03/22 01:44:21;;;;;;;18.52;7.10;;;;;;;10.02;57.80;98598.81;5092810;28;20028;-51
2023/03/22 01:46:49;;;;;;;12.15;6.72;;;;;;;10.00;58.24;98596.38;5074619;28;20509;-51
2023/03/22 01:49:27;;;;;;;10.63;6.80;;;;;;;9.96;58.42;98594.34;5092799;28;20493;-51
2023/03/22 01:51:56;;;;;;;10.85;6.47;;;;;;;10.05;58.29;98587.91;5092972;28;20036;-51
2023/03/22 01:54:34;;;;;;;11.75;6.65;;;;;;;10.13;58.22;98585.09;5092635;28;20103;-51
2023/03/22 01:57:02;;;;;;;8.18;5.95;;;;;;;9.98;57.84;98580.03;5091672;28;20035;-51
2023/03/22 01:59:29;;;;;;;11.38;5.97;;;;;;;9.80;58.55;98580.59;5057872;28;20020;-51
2023/03/22 02:01:58;;;;;;;12.80;6.65;;;;;;;9.58;59.12;98587.78;5074418;28;20389;-51
2023/03/22 02:04:33;;;;;;;10.93;6.57;;;;;;;9.42;59.53;98582.06;5092541;28;20031;-50
2023/03/22 02:07:08;;;;;;;10.88;6.80;;;;;;;9.34;60.08;98573.38;5092707;28;20028;-50
2023/03/22 02:09:38;;;;;;;;;;;;;;;9.23;60.32;98583.59;5093143;28;20036;-50
2023/03/22 02:12:22;;;;;;;11.85;6.30;;;;;;;9.17;60.91;98585.97;5092566;28;19916;-50
2023/03/22 02:15:03;;;;;;;11.98;6.53;;;;;;;9.16;61.14;98573.09;5092452;28;20030;-50
2023/03/22 02:17:51;;;;;;;13.07;5.60;;;;;;;9.28;61.21;98581.22;5092397;28;20024;-51
2023/03/22 02:20:40;;;;;;;9.60;5.47;;;;;;;9.53;59.97;98574.47;5092313;28;20078;-50
2023/03/22 02:23:39;;;;;;;12.18;5.80;;;;;;;9.50;59.90;98561.75;5074006;28;20453;-51
2023/03/22 02:26:23;;;;;;;12.15;5.22;;;;;;;9.44;60.05;98566.97;5074110;28;20060;-50
2023/03/22 02:29:07;;;;;;;10.88;5.15;;;;;;;9.44;60.65;98567.78;5092259;28;20505;-51
2023/03/22 02:31:56;;;;;;;8.48;5.45;;;;;;;9.18;60.22;98561.44;5092263;28;20063;-51
2023/03/22 02:34:30;;;;;;;12.18;6.32;;;;;;;8.97;61.41;98564.97;5074067;28;20028;-50
2023/03/22 02:37:17;;;;;;;8.48;5.35;;;;;;;8.80;61.41;98572.28;5073977;28;20070;-50
2023/03/22 02:39:52;;;;;;;7.88;5.43;;;;;;;8.66;62.26;98572.41;5074170;28;20032;-51
2023/03/22 02:42:24;;;;;;;10.70;5.50;;;;;;;8.71;62.49;98575.22;5073948;28;20028;-51
2023/03/22 02:44:59;;;;;;;10.60;5.97;;;;;;;8.72;62.13;98569.00;5091973;28;20755;-50
2023/03/22 02:47:39;;;;;;;9.82;5.25;;;;;;;8.75;62.83;98576.47;5092006;28;20024;-51
2023/03/22 02:50:20;;;;;;;11.15;5.25;;;;;;;8.86;62.53;98573.34;5073511;28;20584;-50
2023/03/22 02:53:02;;;;;;;12.07;6.43;;;;;;;8.98;62.32;98573.59;5091920;28;20027;-50
2023/03/22 02:55:36;;;;;;;12.13;6.63;;;;;;;9.10;61.59;98579.13;5073846;28;20035;-50
2023/03/22 02:58:17;;;;;;;24.52;20.40;;;;;;;9.08;60.99;98586.34;5073820;28;20024;-50
2023/03/22 03:00:45;;;;;;;29.77;26.02;;;;;;;8.86;61.67;98577.75;5073723;28;20031;-50
2023/03/22 03:03:17;;;;;;;17.85;9.77;;;;;;;8.69;62.59;98566.75;5091712;28;20024;-50
2023/03/22 03:05:51;;;;;;;16.23;7.18;;;;;;;8.71;62.65;98573.44;5091889;28;20070;-50
2023/03/22 03:08:19;;;;;;;9.57;6.57;;;;;;;8.58;62.74;98571.53;5074579;28;20036;-50
2023/03/22 03:10:46;;;;;;;11.57;6.38;;;;;;;8.38;62.96;98579.19;5095770;28;20081;-50
2023/03/22 03:13:14;;;;;;;10.55;5.95;;;;;;;8.18;63.71;98580.81;5095903;28;20028;-50
2023/03/22 03:15:42;;;;;;;8.57;5.25;;;;;;;8.03;64.44;98582.69;5095974;28;20516;-50
2023/03/22 03:18:39;;;;;;;13.38;4.93;;;;;;;7.95;65.12;98581.03;5095681;28;20031;-50
2023/03/22 03:21:22;;;;;;;10.27;5.47;;;;;;;8.10;64.78;98578.34;5095716;28;20027;-50
2023/03/22 03:23:53;;;;;;;8.57;4.78;;;;;;;8.21;64.35;98580.47;5095776;28;20216;-50
2023/03/22 03:26:34;;;;;;;12.13;5.38;;;;;;;8.22;64.26;98589.09;5095781;28;20035;-50
2023/03/22 03:29:00;;;;;;;10.05;5.88;;;;;;;8.10;63.87;98594.03;5077438;28;20039;-51
2023/03/22 03:31:46;;;;;;;14.32;5.80;;;;;;;8.02;64.40;98596.75;5095474;28;20455;-51
2023/03/22 03:34:19;;;;;;;9.85;5.57;;;;;;;8.13;64.35;98593.63;5077189;28;20024;-50
2023/03/22 03:36:55;;;;;;;11.00;5.93;;;;;;;8.15;64.03;98586.44;5077346;28;20024;-50
2023/03/22 03:39:26;;;;;;;7.80;5.45;;;;;;;8.08;64.20;98586.34;5095468;28;20024;-50
2023/03/22 03:41:54;;;;;;;7.65;5.10;;;;;;;7.98;64.49;98586.66;5095488;28;20036;-50
2023/03/22 03:44:20;;;;;;;8.07;5.47;;;;;;;7.88;64.47;98590.59;5095323;28;20107;-50
2023/03/22 03:46:47;;;;;;;8.18;5.72;;;;;;;7.78;64.63;98593.50;5060561;28;20023;-50
2023/03/22 03:49:16;;;;;;;8.93;5.85;;;;;;;7.67;65.45;98597.41;5095317;28;20039;-50
2023/03/22 03:51:53;;;;;;;10.55;5.68;;;;;;;7.59;65.99;98592.28;5094903;28;20048;-50
2023/03/22 03:54:19;;;;;;;7.20;5.28;;;;;;;7.75;66.14;98597.28;5076960;28;20023;-50
2023/03/22 03:56:46;;;;;;;10.80;6.50;;;;;;;7.87;66.15;98588.94;5076878;28;20020;-51
2023/03/22 03:59:14;;;;;;;11.45;5.88;;;;;;;8.13;65.14;98593.63;5095116;28;20023;-50
2023/03/22 04:01:48;;;;;;;11.70;5.35;;;;;;;8.46;64.86;98593.16;5095189;28;20329;-50
2023/03/22 04:04:25;;;;;;;10.68;5.65;;;;;;;8.65;63.76;98586.47;5078287;28;20028;-51
2023/03/22 04:06:55;;;;;;;13.70;5.50;;;;;;;8.72;63.15;98585.50;5078286;28;20035;-50
2023/03/22 04:09:26;;;;;;;9.60;5.07;;;;;;;8.68;62.64;98583.47;5076579;28;20027;-50
2023/03/22 04:11:52;;;;;;;9.35;5.10;;;;;;;8.55;62.95;98585.00;5094893;28;20028;-50
2023/03/22 04:14:18;;;;;;;10.73;5.45;;;;;;;8.71;63.26;98572.63;5076495;28;20021;-51
2023/03/22 04:16:44;;;;;;;10.40;5.20;;;;;;;8.94;63.21;98575.00;5076590;28;20516;-50
2023/03/22 04:19:10;;;;;;;8.10;5.32;;;;;;;9.11;61.73;98571.03;5094301;28;20545;-50
2023/03/22 04:21:36;;;;;;;13.68;5.32;;;;;;;9.08;61.50;98581.13;5093610;28;20020;-51
2023/03/22 04:24:02;;;;;;;10.00;5.13;;;;;;;9.02;61.18;98569.59;5094602;28;20095;-51
2023/03/22 04:26:27;;;;;;;10.85;5.20;;;;;;;8.90;61.33;98563.28;5094484;28;20030;-51
2023/03/22 04:28:53;;;;;;;10.07;5.10;;;;;;;8.88;61.99;98550.41;5076283;28;20114;-49
2023/03/22 04:31:19;;;;;;;11.32;4.90;;;;;;;8.95;61.39;98550.41;5094467;28;20048;-50
2023/03/22 04:33:46;;;;;;;15.38;5.00;;;;;;;8.81;61.26;98544.31;5094372;28;20505;-51
2023/03/22 04:36:16;;;;;;;8.15;4.35;;;;;;;8.74;61.43;98544.28;5094327;28;20111;-50
2023/03/22 04:38:42;;;;;;;13.15;5.93;;;;;;;8.62;61.81;98543.19;5076061;28;20501;-50
2023/03/22 04:41:09;;;;;;;10.35;4.47;;;;;;;8.46;62.22;98540.88;5094184;28;20035;-51
2023/03/22 04:43:38;;;;;;;11.10;5.32;;;;;;;8.40;62.40;98548.44;5094200;28;20023;-51
2023/03/22 04:46:11;;;;;;;10.18;5.28;;;;;;;8.31;62.62;98544.34;5076452;28;20028;-50
2023/03/22 04:48:39;;;;;;;12.77;5.95;;;;;;;8.24;63.06;98542.66;5094243;28;20020;-50
2023/03/22 04:51:07;;;;;;;9.80;4.93;;;;;;;8.08;63.37;98552.38;5093817;28;20044;-51
2023/03/22 04:53:37;;;;;;;15.93;5.32;;;;;;;8.02;63.20;98547.09;5094047;28;20055;-50
2023/03/22 04:56:09;;;;;;;9.70;5.40;;;;;;;7.92;63.47;98550.03;5094075;28;20565;-50
2023/03/22 04:58:38;;;;;;;9.73;5.00;;;;;;;7.92;64.34;98550.81;5093743;28;20056;-50
2023/03/22 05:01:05;;;;;;;10.50;4.93;;;;;;;7.94;63.88;98553.25;5094275;28;20119;-50
2023/03/22 05:03:32;;;;;;;8.52;5.10;;;;;;;7.92;63.88;98555.25;5059067;28;20588;-50
2023/03/22 05:05:59;;;;;;;7.53;4.93;;;;;;;7.80;63.70;98554.94;5075610;28;20028;-51
2023/03/22 05:08:27;;;;;;;7.88;5.28;;;;;;;7.67;64.29;98555.59;5093586;28;20024;-51
2023/03/22 05:10:55;;;;;;;8.18;5.28;;;;;;;7.54;64.53;98560.66;5093533;28;20031;-50
2023/03/22 05:13:26;;;;;;;11.57;6.82;;;;;;;7.44;64.61;98557.53;5093634;28;20031;-51
2023/03/22 05:15:52;;;;;;;8.30;6.25;;;;;;;7.42;64.83;98564.75;5075351;28;20037;-51
2023/03/22 05:18:20;;;;;;;8.80;5.07;;;;;;;7.37;65.60;98566.09;5093493;28;20032;-50
2023/03/22 05:20:47;;;;;;;6.28;4.63;;;;;;;7.48;65.80;98567.44;5093379;28;20031;-51
2023/03/22 05:23:19;;;;;;;8.48;4.97;;;;;;;7.55;65.03;98570.94;5093314;28;20064;-51
2023/03/22 05:25:46;;;;;;;7.88;4.97;;;;;;;7.45;64.96;98580.06;5093689;28;20039;-50
2023/03/22 05:28:13;;;;;;;9.55;5.15;;;;;;;7.46;65.72;98582.47;5075138;28;20024;-50
2023/03/22 05:30:42;;;;;;;11.25;4.55;;;;;;;7.45;65.88;98573.03;5074822;28;20051;-50
2023/03/22 05:33:09;;;;;;;13.30;4.85;;;;;;;7.56;65.50;98566.53;5093295;28;20024;-51
2023/03/22 05:35:38;;;;;;;11.85;5.57;;;;;;;7.59;65.61;98568.78;5074944;28;20525;-51
2023/03/22 05:38:04;;;;;;;5.88;3.90;;;;;;;7.72;65.33;98566.28;5074948;28;20019;-50
2023/03/22 05:40:30;;;;;;;11.80;5.10;;;;;;;7.87;65.11;98568.03;5074973;28;20420;-51
2023/03/22 05:42:56;;;;;;;9.77;4.07;;;;;;;7.96;64.15;98570.34;5092950;28;20021;-50
2023/03/22 05:45:22;;;;;;;6.50;4.65;;;;;;;7.99;64.26;98571.81;5092949;28;20025;-50
2023/03/22 05:47:48;;;;;;;10.05;4.57;;;;;;;7.97;63.73;98573.81;5074778;28;20012;-51
2023/03/22 05:50:20;;;;;;;13.20;5.78;;;;;;;8.00;63.95;98578.66;5092683;28;20536;-50
2023/03/22 05:52:47;;;;;;;14.10;5.47;;;;;;;8.25;63.34;98586.09;5092892;28;20148;-50
2023/03/22 05:55:16;;;;;;;7.63;5.15;;;;;;;9.03;62.10;98580.88;5074720;28;20118;-50
2023/03/22 05:57:43;;;;;;;9.15;4.60;;;;;;;9.71;59.11;98579.16;5092655;28;20018;-50
2023/03/22 06:00:12;;;;;;;12.35;5.00;;;;;;;10.24;57.31;98580.25;5074447;28;20459;-51
2023/03/22 06:02:39;;;;;;;7.85;4.28;;;;;;;10.58;55.46;98585.38;5092409;28;20073;-51
2023/03/22 06:05:06;;;;;;;11.30;4.70;;;;;;;10.84;54.72;98586.34;5092454;28;20036;-50
2023/03/22 06:07:31;;;;;;;8.85;4.80;;;;;;;10.78;54.57;98587.16;5074599;28;20016;-50
2023/03/22 06:09:57;;;;;;;7.03;4.32;;;;;;;10.44;55.52;98586.34;5074285;28;20031;-51
2023/03/22 06:12:24;;;;;;;10.73;5.78;;;;;;;10.19;56.16;98586.13;5092427;28;20058;-50
2023/03/22 06:14:51;;;;;;;13.73;6.28;;;;;;;9.92;57.33;98585.25;5092409;28;20532;-50
2023/03/22 06:17:18;;;;;;;14.70;6.68;;;;;;;9.87;57.87;98585.84;5074097;28;20020;-50
2023/03/22 06:19:43;;;;;;;8.85;4.80;;;;;;;9.89;57.51;98575.97;5074341;28;20089;-50
2023/03/22 06:22:09;;;;;;;10.63;4.95;;;;;;;10.04;56.75;98578.44;5092217;28;20016;-51
2023/03/22 06:24:35;;;;;;;10.80;5.28;;;;;;;10.49;56.46;98583.16;5092206;28;20024;-50
2023/03/22 06:27:01;;;;;;;12.48;7.50;;;;;;;11.47;54.29;98580.53;5092367;28;20020;-50
2023/03/22 06:29:27;;;;;;;17.52;6.47;;;;;;;12.39;52.44;98577.56;5073978;28;20461;-50
2023/03/22 06:31:52;;;;;;;16.63;6.55;;;;;;;13.04;48.89;98573.72;5074105;28;20024;-50
2023/03/22 06:34:18;;;;;;;11.88;6.78;;;;;;;13.36;48.25;98569.97;5073936;28;20024;-51
2023/03/22 06:36:44;;;;;;;11.93;6.95;;;;;;;14.15;46.04;98561.22;5073856;28;20031;-49
2023/03/22 06:39:09;;;;;;;11.55;6.38;;;;;;;14.29;44.97;98565.25;5073837;28;20085;-48
2023/03/22 06:41:35;;;;;;;14.18;6.38;;;;;;;14.53;44.63;98566.09;5073733;28;20429;-48
2023/03/22 06:44:01;;;;;;;13.18;6.60;;;;;;;14.47;44.31;98564.34;5073224;28;20032;-48
2023/03/22 06:46:27;;;;;;;14.27;7.00;;;;;;;14.27;44.47;98566.53;5091923;28;20020;-48
2023/03/22 06:48:52;;;;;;;13.35;7.00;;;;;;;13.91;45.26;98562.97;5091906;28;20508;-48
2023/03/22 06:51:18;;;;;;;16.00;6.10;;;;;;;13.68;45.74;98575.06;5091631;28;20063;-48
2023/03/22 06:53:45;;;;;;;13.57;6.47;;;;;;;13.56;46.26;98561.00;5073842;28;20020;-48
2023/03/22 06:56:11;;;;;;;15.35;6.15;;;;;;;14.04;46.99;98568.06;5091781;28;20402;-48
2023/03/22 06:58:36;;;;;;;18.00;6.38;;;;;;;14.76;44.97;98569.78;5073704;28;20032;-48
2023/03/22 07:01:02;;;;;;;8.93;5.55;;;;;;;15.23;44.07;98566.28;5091838;28;20020;-48
2023/03/22 07:03:28;;;;;;;11.75;5.40;;;;;;;15.61;42.22;98557.78;5073461;28;20052;-48
2023/03/22 07:06:01;;;;;;;19.00;6.50;;;;;;;15.77;41.92;98559.72;5091785;28;20106;-48
2023/03/22 07:08:26;;;;;;;14.73;6.40;;;;;;;15.92;40.97;98559.19;5073590;28;20039;-48
2023/03/22 07:10:52;;;;;;;13.02;6.85;;;;;;;15.93;41.01;98559.97;5073493;28;20482;-48
2023/03/22 07:13:17;;;;;;;10.07;5.97;;;;;;;16.19;40.50;98555.91;5091637;28;20111;-48
2023/03/22 07:15:43;;;;;;;15.60;6.03;;;;;;;16.54;39.89;98563.63;5091689;28;20387;-48
2023/03/22 07:18:09;;;;;;;13.10;5.55;;;;;;;17.23;39.35;98557.16;5091658;28;20032;-48
2023/03/22 07:20:37;;;;;;;8.05;5.25;;;;;;;17.98;37.97;98562.75;5073391;28;20470;-49
2023/03/22 07:23:03;;;;;;;11.32;5.70;;;;;;;18.58;36.70;98562.72;5073824;28;20023;-48
2023/03/22 07:25:29;;;;;;;8.00;4.43;;;;;;;19.25;35.94;98567.38;5091552;28;20501;-48
2023/03/22 07:27:55;;;;;;;10.77;5.13;;;;;;;19.86;34.15;98566.78;5091573;28;20099;-48
2023/03/22 07:30:21;;;;;;;11.70;4.30;;;;;;;20.32;33.47;98566.84;5091699;28;20105;-47
2023/03/22 07:32:46;;;;;;;11.20;4.97;;;;;;;20.87;33.32;98553.72;5073336;28;20485;-47
2023/03/22 07:35:12;;;;;;;10.43;4.85;;;;;;;21.29;32.08;98560.50;5091429;28;20439;-46
2023/03/22 07:37:38;;;;;;;10.27;4.60;;;;;;;21.46;32.04;98559.41;5073325;28;20134;-46
2023/03/22 07:40:04;;;;;;;7.97;4.78;;;;;;;22.10;32.34;98563.00;5073259;28;20236;-46
2023/03/22 07:42:30;;;;;;;8.60;4.65;;;;;;;22.69;30.96;98563.88;5091182;28;20527;-46
2023/03/22 07:44:56;;;;;;;9.57;5.03;;;;;;;23.03;30.71;98558.44;5073196;28;20028;-46
2023/03/22 07:47:22;;;;;;;9.27;4.18;;;;;;;23.13;30.44;98557.53;5073331;28;20023;-46
2023/03/22 07:49:48;;;;;;;8.90;4.85;;;;;;;22.78;30.39;98556.81;5072900;28;20047;-47
2023/03/22 07:52:13;;;;;;;12.48;4.75;;;;;;;22.49;30.90;98559.50;5073131;28;20039;-46
2023/03/22 07:54:39;;;;;;;14.02;5.20;;;;;;;22.81;31.01;98561.59;5092746;28;20044;-46
2023/03/22 07:57:05;;;;;;;11.35;5.03;;;;;;;23.25;29.72;98568.63;5076721;28;20168;-46
2023/03/22 07:59:31;;;;;;;14.13;4.72;;;;;;;23.31;30.14;98567.47;5076722;28;20354;-46
2023/03/22 08:01:57;;;;;;;10.18;4.18;;;;;;;22.77;29.64;98565.13;5076607;28;20051;-47
2023/03/22 08:04:23;;;;;;;11.43;4.50;;;;;;;21.80;30.92;98564.03;5094765;28;20043;-46
2023/03/22 08:06:50;;;;;;;12.18;4.65;;;;;;;22.29;31.39;98561.28;5094769;28;20024;-46
2023/03/22 08:09:17;;;;;;;13.07;7.38;;;;;;;23.08;30.21;98558.41;5094711;28;20020;-46
2023/03/22 08:11:42;;;;;;;14.85;4.88;;;;;;;23.67;29.62;98556.31;5076429;28;20123;-46
2023/03/22 08:14:08;;;;;;;10.27;4.15;;;;;;;24.52;28.61;98548.31;5076397;28;20154;-47
2023/03/22 08:16:34;;;;;;;16.77;5.38;;;;;;;25.73;27.58;98544.59;5076366;28;20565;-47
2023/03/22 08:19:00;;;;;;;12.07;4.47;;;;;;;26.52;26.08;98546.72;5076332;28;20063;-47
2023/03/22 08:21:26;;;;;;;12.05;4.78;;;;;;;26.67;26.28;98538.28;5076139;28;20050;-47
2023/03/22 08:23:52;;;;;;;13.55;4.10;;;;;;;26.89;25.79;98540.13;5094724;28;20028;-46
2023/03/22 08:26:17;;;;;;;17.42;4.07;;;;;;;27.16;24.94;98543.69;5094326;28;20468;-47
2023/03/22 08:28:43;;;;;;;22.45;5.07;;;;;;;27.41;24.22;98534.09;5076191;28;20020;-47
2023/03/22 08:31:15;;;;;;;8.73;3.97;;;;;;;27.80;23.68;98539.66;5076133;28;20114;-47
2023/03/22 08:33:41;;;;;;;8.40;3.75;;;;;;;27.16;23.95;98538.28;5094539;28;20028;-47
2023/03/22 08:36:09;;;;;;;20.60;4.55;;;;;;;26.38;25.23;98537.94;5076032;28;20030;-47
2023/03/22 08:38:35;;;;;;;8.63;4.13;;;;;;;26.57;26.13;98538.53;5094170;28;20077;-47
2023/03/22 08:41:02;;;;;;;10.65;3.80;;;;;;;27.11;24.89;98538.47;5094091;28;20024;-47
2023/03/22 08:43:28;;;;;;;11.50;3.47;;;;;;;27.28;25.34;98543.09;5094217;28;20024;-47
2023/03/22 08:45:53;;;;;;;10.75;3.28;;;;;;;27.40;24.14;98540.59;5075820;28;20490;-47
2023/03/22 08:48:19;;;;;;;7.45;3.80;;;;;;;27.32;23.55;98541.38;5075759;28;20024;-46
2023/03/22 08:50:45;;;;;;;17.40;5.43;;;;;;;27.15;24.31;98546.72;5093665;28;20040;-47
2023/03/22 08:53:12;;;;;;;12.40;3.17;;;;;;;26.39;24.70;98542.25;5075761;28;20455;-47
2023/03/22 08:55:43;;;;;;;10.73;4.20;;;;;;;25.77;25.59;98540.22;5093762;28;20141;-47
2023/03/22 08:58:15;;;;;;;13.45;4.68;;;;;;;26.06;26.41;98537.16;5076559;28;20020;-47
2023/03/22 09:00:42;;;;;;;7.63;3.00;;;;;;;26.37;24.94;98534.47;5093695;28;20032;-47
2023/03/22 09:03:08;;;;;;;14.80;4.22;;;;;;;25.03;26.57;98544.72;5093607;28;20493;-47
2023/03/22 09:05:33;;;;;;;10.82;3.33;;;;;;;24.18;27.46;98543.25;5075102;28;20030;-47
2023/03/22 09:08:00;;;;;;;18.48;4.32;;;;;;;25.06;27.60;98533.34;5093412;28;20443;-47
2023/03/22 09:10:27;;;;;;;6.15;3.20;;;;;;;26.68;25.20;98525.63;5093811;28;20027;-47
2023/03/22 09:12:53;;;;;;;11.50;4.22;;;;;;;27.67;24.88;98526.03;5093527;28;20566;-47
2023/03/22 09:15:19;;;;;;;17.60;4.57;;;;;;;28.30;23.56;98522.97;5075269;28;20032;-47
2023/03/22 09:17:45;;;;;;;7.72;3.65;;;;;;;28.26;22.91;98522.81;5093752;28;20023;-47
2023/03/22 09:20:11;;;;;;;13.70;4.82;;;;;;;28.25;23.76;98529.34;5093384;28;20492;-47
2023/03/22 09:22:37;;;;;;;12.48;4.80;;;;;;;29.59;23.35;98519.97;5093339;28;20027;-48
2023/03/22 09:25:03;;;;;;;13.32;5.28;;;;;;;30.70;22.23;98514.13;5093311;28;20032;-47
2023/03/22 09:27:30;;;;;;;14.98;5.15;;;;;;;31.45;21.27;98509.13;5075055;28;20020;-47
2023/03/22 09:29:55;;;;;;;19.42;4.93;;;;;;;32.08;20.54;98520.56;5093086;28;20035;-47
2023/03/22 09:32:21;;;;;;;19.98;4.53;;;;;;;32.06;20.22;98511.97;5074946;28;20028;-47
2023/03/22 09:34:46;;;;;;;11.05;4.40;;;;;;;32.18;20.08;98523.53;5074833;28;20035;-47
2023/03/22 09:37:13;;;;;;;10.65;4.30;;;;;;;32.06;20.33;98518.19;5074727;28;20055;-47
2023/03/22 09:39:40;;;;;;;28.77;5.38;;;;;;;31.72;20.70;98520.34;5074805;28;20030;-47
2023/03/22 09:42:28;;;;;;;16.38;4.63;;;;;;;31.55;21.22;98523.31;5074786;28;20020;-47
2023/03/22 09:44:56;;;;;;;14.43;4.32;;;;;;;31.57;21.44;98521.88;5092924;28;20240;-47
2023/03/22 09:47:33;;;;;;;11.93;3.95;;;;;;;31.60;21.21;98523.88;5074575;28;20020;-47
2023/03/22 09:50:05;;;;;;;7.43;4.35;;;;;;;31.42;21.01;98525.25;5092515;28;20085;-47
2023/03/22 09:52:31;;;;;;;13.52;4.30;;;;;;;31.67;21.27;98522.50;5092848;28;20035;-47
2023/03/22 09:54:58;;;;;;;6.93;3.70;;;;;;;32.13;20.57;98526.50;5074486;28;20085;-47
2023/03/22 09:57:32;;;;;;;7.25;3.60;;;;;;;32.37;19.96;98517.41;5092663;28;20485;-48
2023/03/22 10:00:11;;;;;;;5.20;3.25;;;;;;;32.72;19.60;98514.06;5074397;28;20032;-47
2023/03/22 10:02:45;;;;;;;6.32;3.65;;;;;;;33.28;19.50;98504.81;5092466;28;20067;-47
2023/03/22 10:05:20;;;;;;;18.95;4.47;;;;;;;33.63;19.20;98507.53;5092582;28;20027;-47
2023/03/22 10:08:03;;;;;;;21.17;3.67;;;;;;;33.95;18.50;98503.84;5092476;28;20032;-47
2023/03/22 10:10:29;;;;;;;9.85;3.60;;;;;;;34.59;18.16;98499.53;5074348;28;20077;-47
2023/03/22 10:13:06;;;;;;;14.68;3.72;;;;;;;35.16;17.47;98486.00;5073458;28;20063;-47
2023/03/22 10:15:35;;;;;;;12.98;4.10;;;;;;;35.46;17.45;98487.94;5092619;28;20054;-47
2023/03/22 10:18:05;;;;;;;4.95;3.00;;;;;;;35.58;16.91;98484.19;5073163;28;20032;-47
2023/03/22 10:20:59;;;;;;;8.68;3.80;;;;;;;35.79;17.03;98476.22;5092235;28;20532;-48
2023/03/22 10:23:50;;;;;;;11.90;3.67;;;;;;;36.18;16.81;98472.31;5088146;28;20477;-50
2023/03/22 10:26:22;;;;;;;8.20;3.30;;;;;;;35.79;16.82;98478.19;5091704;28;20097;-50
2023/03/22 10:29:14;;;;;;;8.00;3.30;;;;;;;35.63;17.27;98470.16;5074049;28;20039;-50
2023/03/22 10:31:43;;;;;;;5.32;2.92;;;;;;;36.22;16.90;98475.09;5074225;28;20538;-49
2023/03/22 10:34:26;;;;;;;7.90;2.75;;;;;;;36.70;16.40;98466.91;5092286;28;20070;-50
2023/03/22 10:36:54;;;;;;;7.00;2.92;;;;;;;36.28;15.94;98471.66;5092337;28;20457;-50
2023/03/22 10:39:32;;;;;;;5.13;2.60;;;;;;;36.09;16.04;98461.69;5092016;28;20107;-50
2023/03/22 10:42:07;;;;;;;5.80;2.80;;;;;;;35.47;16.91;98469.59;5073793;28;20032;-50
2023/03/22 10:44:42;;;;;;;8.60;2.67;;;;;;;35.50;17.12;98464.19;5073903;28;20040;-50
2023/03/22 10:47:10;;;;;;;9.38;3.15;;;;;;;35.47;17.30;98453.22;5091961;28;20401;-50
2023/03/22 10:49:42;;;;;;;12.20;4.53;;;;;;;35.75;17.56;98452.78;5091603;28;20032;-50
2023/03/22 10:52:31;;;;;;;8.52;3.05;;;;;;;35.24;17.68;98447.91;5091907;28;20481;-50
2023/03/22 10:54:57;;;;;;;9.15;4.00;;;;;;;34.46;18.79;98442.88;5081016;28;20028;-50
2023/03/22 10:57:26;;;;;;;11.85;3.60;;;;;;;34.75;17.99;98434.00;5057067;28;20097;-50
2023/03/22 10:59:55;;;;;;;11.60;3.03;;;;;;;35.36;17.46;98434.00;5073609;28;20494;-50
2023/03/22 11:02:27;;;;;;;12.68;3.60;;;;;;;35.03;18.40;98435.50;5073572;28;20051;-50
2023/03/22 11:04:55;;;;;;;15.50;3.30;;;;;;;35.39;17.42;98427.78;5073648;28;20052;-50
2023/03/22 11:07:43;;;;;;;10.98;2.97;;;;;;;35.52;17.06;98436.53;5073575;28;20062;-50
2023/03/22 11:10:09;;;;;;;13.15;2.58;;;;;;;35.31;16.81;98420.69;5092022;28;20031;-50
2023/03/22 11:12:43;;;;;;;13.77;3.03;;;;;;;35.12;17.18;98414.22;5091707;28;20040;-50
2023/03/22 11:15:30;;;;;;;26.10;4.38;;;;;;;35.40;16.83;98405.59;5073566;28;20043;-50
2023/03/22 11:18:07;;;;;;;6.88;2.25;;;;;;;33.93;17.68;98411.63;5073451;28;20144;-50
2023/03/22 11:20:33;;;;;;;8.00;2.15;;;;;;;33.84;17.84;98411.06;5091581;28;20557;-48
2023/03/22 11:23:02;;;;;;;11.85;3.85;;;;;;;34.14;17.45;98399.53;5073353;28;20027;-48
2023/03/22 11:25:34;;;;;;;26.98;11.40;;;;;;;34.27;17.36;98397.41;5073427;28;20020;-48
2023/03/22 11:28:03;;;;;;;24.65;10.07;;;;;;;34.54;17.61;98398.22;5073375;28;20031;-48
2023/03/22 11:30:30;;;;;;;12.32;3.50;;;;;;;34.77;16.32;98398.16;5094337;28;20056;-47
2023/03/22 11:33:08;;;;;;;11.20;4.57;;;;;;;34.14;17.60;98410.44;5077236;28;20047;-47
2023/03/22 11:35:37;;;;;;;12.35;4.40;;;;;;;33.68;17.01;98413.13;5077198;28;20028;-47
2023/03/22 11:38:03;;;;;;;6.03;1.90;;;;;;;33.88;17.30;98406.47;5095356;28;20023;-47
2023/03/22 11:40:35;;;;;;;3.92;1.88;;;;;;;34.50;16.96;98400.88;5076985;28;20020;-48
2023/03/22 11:43:18;;;;;;;30.17;7.55;;;;;;;35.15;16.53;98402.56;5076930;28;20393;-47